createdAt,value
2023-01-17T00:01:49.224Z,0.013
2023-01-17T00:06:49.734Z,0.013
2023-01-17T00:11:49.265Z,0.011
2023-01-17T00:16:49.250Z,0.017
2023-01-17T00:21:49.247Z,0.018
2023-01-17T00:26:49.756Z,0.015
2023-01-17T00:31:49.299Z,0.015
2023-01-17T00:36:49.277Z,0.022
2023-01-17T00:41:49.409Z,0.029
2023-01-17T00:46:49.341Z,0.036
2023-01-17T00:51:49.341Z,0.059
2023-01-17T00:56:49.318Z,0.085
2023-01-17T01:01:49.520Z,0.074
2023-01-17T01:06:49.341Z,0.077
2023-01-17T01:11:49.879Z,0.027
2023-01-17T01:16:49.864Z,0.028
2023-01-17T01:21:55.295Z,0.036
2023-01-17T01:26:49.368Z,0.018
2023-01-17T01:31:49.523Z,0.018
2023-01-17T01:36:49.379Z,0.015
2023-01-17T01:41:49.406Z,0.015
2023-01-17T01:46:51.721Z,0.008
2023-01-17T01:51:49.460Z,0.012
2023-01-17T01:56:49.934Z,0.008
2023-01-17T02:01:50.127Z,0.006
2023-01-17T02:06:49.458Z,0.012
2023-01-17T02:11:49.978Z,0.009
2023-01-17T02:16:49.968Z,0.007
2023-01-17T02:21:49.999Z,0.012
2023-01-17T02:26:54.841Z,0.003
2023-01-17T02:31:49.532Z,0.005
2023-01-17T02:36:49.508Z,0
2023-01-17T02:41:49.490Z,0
2023-01-17T02:46:49.564Z,0.001
2023-01-17T02:51:53.643Z,0.001
2023-01-17T02:56:49.531Z,0.002
2023-01-17T03:01:49.819Z,0.007
2023-01-17T03:06:50.086Z,0.013
2023-01-17T03:11:49.617Z,0.016
2023-01-17T03:16:49.656Z,0.015
2023-01-17T03:21:49.580Z,0.052
2023-01-17T03:26:50.208Z,0.093
2023-01-17T03:31:50.094Z,0.102
2023-01-17T03:36:49.594Z,0.099
2023-01-17T03:41:49.595Z,0.093
2023-01-17T03:46:49.699Z,0.104
2023-01-17T03:51:49.686Z,0.104
2023-01-17T03:56:54.969Z,0.099
2023-01-17T04:01:50.265Z,0.095
2023-01-17T04:06:50.208Z,0.104
2023-01-17T04:11:49.647Z,0.104
2023-01-17T04:16:49.722Z,0.113
2023-01-17T04:21:50.184Z,0.094
2023-01-17T04:26:49.700Z,0.107
2023-01-17T04:31:49.731Z,0.109
2023-01-17T04:36:50.801Z,0.093
2023-01-17T04:41:50.223Z,0.085
2023-01-17T04:46:50.375Z,0.109
2023-01-17T04:51:50.258Z,0.103
2023-01-17T04:56:49.735Z,0.095
2023-01-17T05:01:49.806Z,0.112
2023-01-17T05:06:55.111Z,0.086
2023-01-17T05:11:50.251Z,0.113
2023-01-17T05:16:50.277Z,0.103
2023-01-17T05:21:50.280Z,0.111
2023-01-17T05:26:50.348Z,0.112
2023-01-17T05:31:49.792Z,0.108
2023-01-17T05:36:50.323Z,0.101
2023-01-17T05:41:50.339Z,0.089
2023-01-17T05:46:50.344Z,0.097
2023-01-17T05:51:50.400Z,0.083
2023-01-17T05:56:49.837Z,0.103
2023-01-17T06:01:50.365Z,0.09
2023-01-17T06:06:49.894Z,0.093
2023-01-17T06:11:49.848Z,0.07
2023-01-17T06:16:50.372Z,0.045
2023-01-17T06:21:50.013Z,0.031
2023-01-17T06:26:49.916Z,0.016
2023-01-17T06:32:04.362Z,0.024
2023-01-17T06:36:49.906Z,0.015
2023-01-17T06:41:50.522Z,0.017
2023-01-17T06:46:49.974Z,0.01
2023-01-17T06:51:50.595Z,0.019
2023-01-17T06:56:50.551Z,0.013
2023-01-17T07:01:55.999Z,0.012
2023-01-17T07:06:56.604Z,0.008
2023-01-17T07:11:50.569Z,0.012
2023-01-17T07:16:50.672Z,0.013
2023-01-17T07:21:50.613Z,0.004
2023-01-17T07:26:50.591Z,0.012
2023-01-17T07:31:50.502Z,0.005
2023-01-17T07:36:55.354Z,0.006
2023-01-17T07:41:50.019Z,0.001
2023-01-17T07:46:50.067Z,0
2023-01-17T07:51:50.047Z,0
2023-01-17T07:56:50.600Z,0
2023-01-17T08:01:50.182Z,0
2023-01-17T08:06:50.095Z,0
2023-01-17T08:11:50.577Z,0
2023-01-17T08:16:50.653Z,0
2023-01-17T08:21:50.085Z,0
2023-01-17T08:26:50.609Z,0
2023-01-17T08:31:50.773Z,0
2023-01-17T08:37:04.607Z,0
2023-01-17T08:41:50.160Z,0
2023-01-17T08:46:50.752Z,0
2023-01-17T08:51:50.141Z,0
2023-01-17T08:56:50.937Z,0
2023-01-17T09:01:50.892Z,0
2023-01-17T09:06:50.774Z,0
2023-01-17T09:11:50.174Z,0
2023-01-17T09:16:50.241Z,0
2023-01-17T09:21:50.193Z,0
2023-01-17T09:26:50.201Z,0
2023-01-17T09:31:50.214Z,0
2023-01-17T09:36:50.248Z,0
2023-01-17T09:41:50.230Z,0
2023-01-17T09:46:50.739Z,0
2023-01-17T09:51:50.340Z,0
2023-01-17T09:56:50.792Z,0
2023-01-17T10:01:50.941Z,0
2023-01-17T10:06:52.023Z,0
2023-01-17T10:11:50.785Z,0
2023-01-17T10:16:50.356Z,0
2023-01-17T10:21:50.296Z,0
2023-01-17T10:26:50.803Z,0
2023-01-17T10:31:50.315Z,0
2023-01-17T10:36:50.865Z,0
2023-01-17T10:41:50.858Z,0
2023-01-17T10:46:50.835Z,0
2023-01-17T10:51:52.111Z,0
2023-01-17T10:56:50.378Z,0
2023-01-17T11:02:06.094Z,0
2023-01-17T11:06:58.014Z,0
2023-01-17T11:11:50.379Z,0
2023-01-17T11:16:51.517Z,0
2023-01-17T11:21:50.902Z,0
2023-01-17T11:26:50.945Z,0
2023-01-17T11:31:50.445Z,0
2023-01-17T11:36:50.462Z,0
2023-01-17T11:41:51.069Z,0
2023-01-17T11:46:50.439Z,0
2023-01-17T11:51:50.441Z,0
2023-01-17T11:56:50.480Z,0
2023-01-17T12:01:50.980Z,0
2023-01-17T12:07:24.737Z,0
2023-01-17T12:11:50.484Z,0
2023-01-17T12:16:50.541Z,0
2023-01-17T12:21:50.505Z,0
2023-01-17T12:26:50.510Z,0
2023-01-17T12:31:50.528Z,0
2023-01-17T12:36:50.559Z,0
2023-01-17T12:41:54.683Z,0
2023-01-17T12:46:50.532Z,0
2023-01-17T12:51:50.562Z,0
2023-01-17T12:56:50.693Z,0
2023-01-17T13:01:50.691Z,0
2023-01-17T13:06:50.594Z,0
2023-01-17T13:11:56.551Z,0
2023-01-17T13:16:50.592Z,0
2023-01-17T13:21:50.611Z,0
2023-01-17T13:26:50.643Z,0
2023-01-17T13:31:51.324Z,0
2023-01-17T13:36:50.652Z,0
2023-01-17T13:41:50.638Z,0
2023-01-17T13:46:50.650Z,0
2023-01-17T13:51:50.742Z,0
2023-01-17T13:56:50.663Z,0
2023-01-17T14:01:50.783Z,0
2023-01-17T14:06:50.687Z,0
2023-01-17T14:11:51.222Z,0
2023-01-17T14:16:50.694Z,0
2023-01-17T14:21:51.216Z,0
2023-01-17T14:26:50.715Z,0
2023-01-17T14:31:51.291Z,0
2023-01-17T14:36:51.245Z,0
2023-01-17T14:41:50.783Z,0
2023-01-17T14:46:57.324Z,0
2023-01-17T14:51:50.766Z,0
2023-01-17T14:56:50.763Z,0
2023-01-17T15:02:05.964Z,0
2023-01-17T15:06:51.333Z,0
2023-01-17T15:11:51.308Z,0
2023-01-17T15:17:05.872Z,0
2023-01-17T15:21:56.869Z,0
2023-01-17T15:26:50.821Z,0
2023-01-17T15:31:51.429Z,0
2023-01-17T15:36:51.516Z,0
2023-01-17T15:41:51.486Z,0
2023-01-17T15:46:51.472Z,0
2023-01-17T15:52:08.964Z,0
2023-01-17T15:56:50.880Z,0
2023-01-17T16:01:52.287Z,0
2023-01-17T16:06:50.930Z,0
2023-01-17T16:11:50.928Z,0
2023-01-17T16:16:51.590Z,0
2023-01-17T16:21:50.991Z,0
2023-01-17T16:26:50.939Z,0
2023-01-17T16:31:50.944Z,0
2023-01-17T16:36:55.789Z,0
2023-01-17T16:41:50.948Z,0
2023-01-17T16:46:51.563Z,0
2023-01-17T16:51:50.964Z,0
2023-01-17T16:56:51.607Z,0
2023-01-17T17:01:51.643Z,0
2023-01-17T17:07:09.081Z,0
2023-01-17T17:11:51.013Z,0
2023-01-17T17:16:51.037Z,0
2023-01-17T17:21:51.020Z,0
2023-01-17T17:26:51.635Z,0
2023-01-17T17:31:51.041Z,0
2023-01-17T17:36:51.073Z,0
2023-01-17T17:41:51.057Z,0
2023-01-17T17:46:51.066Z,0
2023-01-17T17:51:52.315Z,0
2023-01-17T17:56:51.093Z,0
2023-01-17T18:02:07.419Z,0
2023-01-17T18:07:23.676Z,0
2023-01-17T18:11:51.124Z,0
2023-01-17T18:16:51.129Z,0
2023-01-17T18:21:51.647Z,0
2023-01-17T18:26:51.174Z,0
2023-01-17T18:32:05.537Z,0
2023-01-17T18:36:51.151Z,0
2023-01-17T18:41:51.175Z,0
2023-01-17T18:46:51.731Z,0
2023-01-17T18:51:51.950Z,0
2023-01-17T18:56:51.249Z,0
2023-01-17T19:01:51.718Z,0
2023-01-17T19:06:51.732Z,0
2023-01-17T19:11:51.215Z,0
2023-01-17T19:16:51.723Z,0
2023-01-17T19:21:51.737Z,0
2023-01-17T19:26:51.762Z,0
2023-01-17T19:31:51.353Z,0
2023-01-17T19:36:51.244Z,0
2023-01-17T19:41:51.867Z,0
2023-01-17T19:46:51.903Z,0
2023-01-17T19:51:51.611Z,0
2023-01-17T19:56:51.289Z,0
2023-01-17T20:01:51.422Z,0
2023-01-17T20:06:51.840Z,0
2023-01-17T20:11:51.331Z,0
2023-01-17T20:16:51.401Z,0
2023-01-17T20:21:51.332Z,0
2023-01-17T20:26:51.368Z,0
2023-01-17T20:31:51.359Z,0
2023-01-17T20:36:51.425Z,0
2023-01-17T20:41:51.882Z,0
2023-01-17T20:46:51.918Z,0
2023-01-17T20:51:51.386Z,0
2023-01-17T20:56:51.398Z,0
2023-01-17T21:01:52.111Z,0
2023-01-17T21:06:51.462Z,0
2023-01-17T21:11:51.982Z,0
2023-01-17T21:16:51.518Z,0
2023-01-17T21:21:51.451Z,0
2023-01-17T21:26:51.633Z,0
2023-01-17T21:31:51.957Z,0
2023-01-17T21:36:52.018Z,0
2023-01-17T21:41:51.985Z,0
2023-01-17T21:46:52.976Z,0
2023-01-17T21:51:51.492Z,0
2023-01-17T21:56:52.006Z,0
2023-01-17T22:01:51.533Z,0
2023-01-17T22:06:51.556Z,0
2023-01-17T22:11:51.516Z,0
2023-01-17T22:16:52.082Z,0
2023-01-17T22:21:51.545Z,0
2023-01-17T22:26:51.597Z,0
2023-01-17T22:31:51.557Z,0
2023-01-17T22:36:52.074Z,0
2023-01-17T22:41:51.570Z,0
2023-01-17T22:46:51.608Z,0
2023-01-17T22:51:51.589Z,0
2023-01-17T22:56:57.038Z,0
2023-01-17T23:01:51.612Z,0
2023-01-17T23:07:22.516Z,0
2023-01-17T23:11:52.240Z,0
2023-01-17T23:16:53.454Z,0
2023-01-17T23:21:51.644Z,0
2023-01-17T23:26:51.674Z,0
2023-01-17T23:31:52.263Z,0
2023-01-17T23:36:52.266Z,0
2023-01-17T23:41:51.681Z,0
2023-01-17T23:46:51.757Z,0
2023-01-17T23:51:51.695Z,0
2023-01-17T23:56:51.710Z,0
